sensor_id;sensor_type;location;lat;lon;timestamp;P1;durP1;ratioP1;P2;durP2;ratioP2
8219;SDS011;4151;51.110;7.020;2024-03-06T00:00:01;39.23;;;15.43;;
8219;SDS011;4151;51.110;7.020;2024-03-06T00:02:29;27.03;;;13.87;;
8219;SDS011;4151;51.110;7.020;2024-03-06T00:04:54;34.43;;;15.03;;
8219;SDS011;4151;51.110;7.020;2024-03-06T00:07:20;34.23;;;14.33;;
8219;SDS011;4151;51.110;7.020;2024-03-06T00:09:45;30.70;;;13.67;;
8219;SDS011;4151;51.110;7.020;2024-03-06T00:12:11;36.40;;;16.43;;
8219;SDS011;4151;51.110;7.020;2024-03-06T00:14:36;34.83;;;14.83;;
8219;SDS011;4151;51.110;7.020;2024-03-06T00:17:02;35.87;;;15.17;;
8219;SDS011;4151;51.110;7.020;2024-03-06T00:19:32;42.77;;;15.67;;
8219;SDS011;4151;51.110;7.020;2024-03-06T00:21:57;36.87;;;15.67;;
8219;SDS011;4151;51.110;7.020;2024-03-06T00:24:26;34.47;;;15.20;;
8219;SDS011;4151;51.110;7.020;2024-03-06T00:26:51;43.77;;;18.03;;
8219;SDS011;4151;51.110;7.020;2024-03-06T00:29:17;35.97;;;15.60;;
8219;SDS011;4151;51.110;7.020;2024-03-06T00:31:43;32.60;;;15.13;;
8219;SDS011;4151;51.110;7.020;2024-03-06T00:34:10;32.27;;;14.70;;
8219;SDS011;4151;51.110;7.020;2024-03-06T00:36:36;38.43;;;16.10;;
8219;SDS011;4151;51.110;7.020;2024-03-06T00:39:02;39.97;;;14.57;;
8219;SDS011;4151;51.110;7.020;2024-03-06T00:41:29;38.77;;;16.47;;
8219;SDS011;4151;51.110;7.020;2024-03-06T00:43:55;33.87;;;14.87;;
8219;SDS011;4151;51.110;7.020;2024-03-06T00:46:21;32.23;;;15.33;;
8219;SDS011;4151;51.110;7.020;2024-03-06T00:48:47;34.03;;;15.27;;
8219;SDS011;4151;51.110;7.020;2024-03-06T00:51:12;33.83;;;14.47;;
8219;SDS011;4151;51.110;7.020;2024-03-06T00:53:38;32.70;;;15.27;;
8219;SDS011;4151;51.110;7.020;2024-03-06T00:56:03;29.60;;;13.10;;
8219;SDS011;4151;51.110;7.020;2024-03-06T00:58:29;36.63;;;14.67;;
8219;SDS011;4151;51.110;7.020;2024-03-06T01:00:55;37.23;;;15.27;;
8219;SDS011;4151;51.110;7.020;2024-03-06T01:03:20;34.07;;;13.63;;
8219;SDS011;4151;51.110;7.020;2024-03-06T01:05:46;32.60;;;14.30;;
8219;SDS011;4151;51.110;7.020;2024-03-06T01:08:12;38.10;;;16.00;;
8219;SDS011;4151;51.110;7.020;2024-03-06T01:10:37;35.10;;;16.17;;
8219;SDS011;4151;51.110;7.020;2024-03-06T01:13:03;29.80;;;14.33;;
8219;SDS011;4151;51.110;7.020;2024-03-06T01:15:28;33.27;;;15.40;;
8219;SDS011;4151;51.110;7.020;2024-03-06T01:17:54;33.40;;;14.40;;
8219;SDS011;4151;51.110;7.020;2024-03-06T01:20:19;34.60;;;14.17;;
8219;SDS011;4151;51.110;7.020;2024-03-06T01:22:45;31.93;;;13.80;;
8219;SDS011;4151;51.110;7.020;2024-03-06T01:25:11;39.20;;;15.40;;
8219;SDS011;4151;51.110;7.020;2024-03-06T01:27:37;32.30;;;14.90;;
8219;SDS011;4151;51.110;7.020;2024-03-06T01:30:02;33.90;;;14.27;;
8219;SDS011;4151;51.110;7.020;2024-03-06T01:32:29;38.17;;;15.47;;
8219;SDS011;4151;51.110;7.020;2024-03-06T01:34:55;37.10;;;14.90;;
8219;SDS011;4151;51.110;7.020;2024-03-06T01:37:20;33.90;;;14.07;;
8219;SDS011;4151;51.110;7.020;2024-03-06T01:39:46;35.03;;;15.33;;
8219;SDS011;4151;51.110;7.020;2024-03-06T01:42:12;28.03;;;14.03;;
8219;SDS011;4151;51.110;7.020;2024-03-06T01:44:37;33.37;;;14.37;;
8219;SDS011;4151;51.110;7.020;2024-03-06T01:47:04;33.53;;;14.00;;
8219;SDS011;4151;51.110;7.020;2024-03-06T01:49:31;34.50;;;13.40;;
8219;SDS011;4151;51.110;7.020;2024-03-06T01:51:57;32.30;;;14.73;;
8219;SDS011;4151;51.110;7.020;2024-03-06T01:54:24;29.67;;;13.00;;
8219;SDS011;4151;51.110;7.020;2024-03-06T01:56:51;31.73;;;14.13;;
8219;SDS011;4151;51.110;7.020;2024-03-06T01:59:18;35.13;;;15.20;;
8219;SDS011;4151;51.110;7.020;2024-03-06T02:01:46;34.50;;;13.20;;
8219;SDS011;4151;51.110;7.020;2024-03-06T02:04:12;26.50;;;11.60;;
8219;SDS011;4151;51.110;7.020;2024-03-06T02:06:41;32.70;;;13.47;;
8219;SDS011;4151;51.110;7.020;2024-03-06T02:09:07;32.03;;;14.17;;
8219;SDS011;4151;51.110;7.020;2024-03-06T02:11:34;30.73;;;13.43;;
8219;SDS011;4151;51.110;7.020;2024-03-06T02:14:01;27.97;;;13.27;;
8219;SDS011;4151;51.110;7.020;2024-03-06T02:16:27;29.47;;;14.53;;
8219;SDS011;4151;51.110;7.020;2024-03-06T02:18:56;30.63;;;14.03;;
8219;SDS011;4151;51.110;7.020;2024-03-06T02:21:26;32.73;;;13.33;;
8219;SDS011;4151;51.110;7.020;2024-03-06T02:23:51;38.23;;;14.50;;
8219;SDS011;4151;51.110;7.020;2024-03-06T02:26:18;31.53;;;14.10;;
8219;SDS011;4151;51.110;7.020;2024-03-06T02:28:47;34.47;;;14.63;;
8219;SDS011;4151;51.110;7.020;2024-03-06T02:31:16;37.70;;;14.63;;
8219;SDS011;4151;51.110;7.020;2024-03-06T02:33:43;33.17;;;14.00;;
8219;SDS011;4151;51.110;7.020;2024-03-06T02:36:09;28.77;;;13.30;;
8219;SDS011;4151;51.110;7.020;2024-03-06T02:38:36;34.80;;;13.70;;
8219;SDS011;4151;51.110;7.020;2024-03-06T02:41:01;34.50;;;13.90;;
8219;SDS011;4151;51.110;7.020;2024-03-06T02:43:27;31.60;;;12.87;;
8219;SDS011;4151;51.110;7.020;2024-03-06T02:45:53;31.67;;;15.87;;
8219;SDS011;4151;51.110;7.020;2024-03-06T02:48:18;26.80;;;13.07;;
8219;SDS011;4151;51.110;7.020;2024-03-06T02:50:44;27.30;;;12.73;;
8219;SDS011;4151;51.110;7.020;2024-03-06T02:53:09;29.73;;;13.80;;
8219;SDS011;4151;51.110;7.020;2024-03-06T02:55:35;30.37;;;14.07;;
8219;SDS011;4151;51.110;7.020;2024-03-06T02:58:01;32.77;;;13.97;;
8219;SDS011;4151;51.110;7.020;2024-03-06T03:00:27;32.07;;;14.63;;
8219;SDS011;4151;51.110;7.020;2024-03-06T03:02:53;29.10;;;13.90;;
8219;SDS011;4151;51.110;7.020;2024-03-06T03:05:19;39.80;;;14.27;;
8219;SDS011;4151;51.110;7.020;2024-03-06T03:07:44;39.47;;;14.90;;
8219;SDS011;4151;51.110;7.020;2024-03-06T03:10:10;29.63;;;14.43;;
8219;SDS011;4151;51.110;7.020;2024-03-06T03:12:35;31.87;;;14.30;;
8219;SDS011;4151;51.110;7.020;2024-03-06T03:15:03;38.83;;;14.60;;
8219;SDS011;4151;51.110;7.020;2024-03-06T03:17:29;27.37;;;13.17;;
8219;SDS011;4151;51.110;7.020;2024-03-06T03:19:55;32.47;;;14.93;;
8219;SDS011;4151;51.110;7.020;2024-03-06T03:22:20;45.83;;;14.57;;
8219;SDS011;4151;51.110;7.020;2024-03-06T03:24:46;34.33;;;14.30;;
8219;SDS011;4151;51.110;7.020;2024-03-06T03:27:12;37.07;;;16.00;;
8219;SDS011;4151;51.110;7.020;2024-03-06T03:29:38;40.37;;;14.97;;
8219;SDS011;4151;51.110;7.020;2024-03-06T03:32:04;34.07;;;15.30;;
8219;SDS011;4151;51.110;7.020;2024-03-06T03:34:30;31.53;;;13.60;;
8219;SDS011;4151;51.110;7.020;2024-03-06T03:36:56;30.07;;;15.23;;
8219;SDS011;4151;51.110;7.020;2024-03-06T03:39:21;37.57;;;15.57;;
8219;SDS011;4151;51.110;7.020;2024-03-06T03:41:49;40.43;;;17.70;;
8219;SDS011;4151;51.110;7.020;2024-03-06T03:44:15;37.80;;;16.97;;
8219;SDS011;4151;51.110;7.020;2024-03-06T03:46:43;36.87;;;15.93;;
8219;SDS011;4151;51.110;7.020;2024-03-06T03:49:09;39.07;;;15.87;;
8219;SDS011;4151;51.110;7.020;2024-03-06T03:51:35;31.33;;;14.70;;
8219;SDS011;4151;51.110;7.020;2024-03-06T03:54:03;32.20;;;15.50;;
8219;SDS011;4151;51.110;7.020;2024-03-06T03:56:29;38.50;;;15.20;;
8219;SDS011;4151;51.110;7.020;2024-03-06T03:58:56;34.70;;;15.73;;
8219;SDS011;4151;51.110;7.020;2024-03-06T04:01:22;38.00;;;16.10;;
8219;SDS011;4151;51.110;7.020;2024-03-06T04:03:48;29.30;;;13.53;;
8219;SDS011;4151;51.110;7.020;2024-03-06T04:06:14;32.07;;;13.73;;
8219;SDS011;4151;51.110;7.020;2024-03-06T04:08:39;28.40;;;13.57;;
8219;SDS011;4151;51.110;7.020;2024-03-06T04:11:06;37.90;;;15.37;;
8219;SDS011;4151;51.110;7.020;2024-03-06T04:13:34;30.80;;;13.73;;
8219;SDS011;4151;51.110;7.020;2024-03-06T04:16:01;27.20;;;12.50;;
8219;SDS011;4151;51.110;7.020;2024-03-06T04:18:27;31.83;;;14.10;;
8219;SDS011;4151;51.110;7.020;2024-03-06T04:20:54;37.60;;;15.10;;
8219;SDS011;4151;51.110;7.020;2024-03-06T04:23:19;43.57;;;14.90;;
8219;SDS011;4151;51.110;7.020;2024-03-06T04:25:45;42.63;;;16.50;;
8219;SDS011;4151;51.110;7.020;2024-03-06T04:28:10;33.93;;;15.43;;
8219;SDS011;4151;51.110;7.020;2024-03-06T04:30:36;38.20;;;14.87;;
8219;SDS011;4151;51.110;7.020;2024-03-06T04:33:01;35.23;;;15.00;;
8219;SDS011;4151;51.110;7.020;2024-03-06T04:35:28;32.23;;;15.43;;
8219;SDS011;4151;51.110;7.020;2024-03-06T04:37:53;38.43;;;15.77;;
8219;SDS011;4151;51.110;7.020;2024-03-06T04:40:19;33.53;;;14.80;;
8219;SDS011;4151;51.110;7.020;2024-03-06T04:42:47;34.83;;;14.80;;
8219;SDS011;4151;51.110;7.020;2024-03-06T04:45:14;38.13;;;16.57;;
8219;SDS011;4151;51.110;7.020;2024-03-06T04:47:41;32.57;;;14.10;;
8219;SDS011;4151;51.110;7.020;2024-03-06T04:50:10;49.80;;;20.40;;
8219;SDS011;4151;51.110;7.020;2024-03-06T04:52:37;37.50;;;16.80;;
8219;SDS011;4151;51.110;7.020;2024-03-06T04:55:03;36.50;;;15.70;;
8219;SDS011;4151;51.110;7.020;2024-03-06T04:57:29;36.23;;;16.40;;
8219;SDS011;4151;51.110;7.020;2024-03-06T04:59:55;30.73;;;15.17;;
8219;SDS011;4151;51.110;7.020;2024-03-06T05:02:21;37.37;;;15.13;;
8219;SDS011;4151;51.110;7.020;2024-03-06T05:04:47;33.17;;;16.20;;
8219;SDS011;4151;51.110;7.020;2024-03-06T05:07:13;35.10;;;15.73;;
8219;SDS011;4151;51.110;7.020;2024-03-06T05:09:38;35.80;;;14.90;;
8219;SDS011;4151;51.110;7.020;2024-03-06T05:12:06;43.93;;;16.37;;
8219;SDS011;4151;51.110;7.020;2024-03-06T05:14:32;41.27;;;16.97;;
8219;SDS011;4151;51.110;7.020;2024-03-06T05:16:58;40.77;;;16.70;;
8219;SDS011;4151;51.110;7.020;2024-03-06T05:19:23;36.13;;;15.97;;
8219;SDS011;4151;51.110;7.020;2024-03-06T05:21:56;35.47;;;16.40;;
8219;SDS011;4151;51.110;7.020;2024-03-06T05:24:24;43.70;;;17.87;;
8219;SDS011;4151;51.110;7.020;2024-03-06T05:26:50;43.93;;;16.97;;
8219;SDS011;4151;51.110;7.020;2024-03-06T05:29:16;39.17;;;16.67;;
8219;SDS011;4151;51.110;7.020;2024-03-06T05:31:41;39.90;;;15.60;;
8219;SDS011;4151;51.110;7.020;2024-03-06T05:34:07;37.93;;;16.77;;
8219;SDS011;4151;51.110;7.020;2024-03-06T05:36:33;38.60;;;15.73;;
8219;SDS011;4151;51.110;7.020;2024-03-06T05:38:58;37.00;;;14.77;;
8219;SDS011;4151;51.110;7.020;2024-03-06T05:41:24;41.70;;;16.10;;
8219;SDS011;4151;51.110;7.020;2024-03-06T05:43:49;35.43;;;14.80;;
8219;SDS011;4151;51.110;7.020;2024-03-06T05:46:15;42.13;;;16.80;;
8219;SDS011;4151;51.110;7.020;2024-03-06T05:48:40;34.80;;;16.40;;
8219;SDS011;4151;51.110;7.020;2024-03-06T05:51:06;39.00;;;19.10;;
8219;SDS011;4151;51.110;7.020;2024-03-06T05:53:35;40.10;;;16.77;;
8219;SDS011;4151;51.110;7.020;2024-03-06T05:56:03;40.47;;;16.60;;
8219;SDS011;4151;51.110;7.020;2024-03-06T05:58:30;43.13;;;16.20;;
8219;SDS011;4151;51.110;7.020;2024-03-06T06:00:56;39.47;;;15.60;;
8219;SDS011;4151;51.110;7.020;2024-03-06T06:03:22;34.27;;;16.10;;
8219;SDS011;4151;51.110;7.020;2024-03-06T06:05:47;39.40;;;16.53;;
8219;SDS011;4151;51.110;7.020;2024-03-06T06:08:13;35.00;;;15.50;;
8219;SDS011;4151;51.110;7.020;2024-03-06T06:10:38;44.30;;;17.53;;
8219;SDS011;4151;51.110;7.020;2024-03-06T06:13:04;32.43;;;14.60;;
8219;SDS011;4151;51.110;7.020;2024-03-06T06:15:30;42.53;;;16.40;;
8219;SDS011;4151;51.110;7.020;2024-03-06T06:17:55;41.60;;;17.10;;
8219;SDS011;4151;51.110;7.020;2024-03-06T06:20:21;42.00;;;16.83;;
8219;SDS011;4151;51.110;7.020;2024-03-06T06:22:46;40.67;;;16.70;;
8219;SDS011;4151;51.110;7.020;2024-03-06T06:25:12;40.07;;;16.33;;
8219;SDS011;4151;51.110;7.020;2024-03-06T06:27:38;40.40;;;15.97;;
8219;SDS011;4151;51.110;7.020;2024-03-06T06:30:04;35.17;;;15.30;;
8219;SDS011;4151;51.110;7.020;2024-03-06T06:32:30;39.60;;;15.90;;
8219;SDS011;4151;51.110;7.020;2024-03-06T06:34:56;39.10;;;17.27;;
8219;SDS011;4151;51.110;7.020;2024-03-06T06:37:22;45.50;;;18.13;;
8219;SDS011;4151;51.110;7.020;2024-03-06T06:39:48;37.87;;;17.23;;
8219;SDS011;4151;51.110;7.020;2024-03-06T06:42:14;39.70;;;16.60;;
8219;SDS011;4151;51.110;7.020;2024-03-06T06:44:39;46.33;;;16.50;;
8219;SDS011;4151;51.110;7.020;2024-03-06T06:47:06;42.50;;;16.37;;
8219;SDS011;4151;51.110;7.020;2024-03-06T06:49:32;41.23;;;17.73;;
8219;SDS011;4151;51.110;7.020;2024-03-06T06:51:59;47.30;;;18.07;;
8219;SDS011;4151;51.110;7.020;2024-03-06T06:54:24;44.80;;;17.57;;
8219;SDS011;4151;51.110;7.020;2024-03-06T06:56:50;54.83;;;17.47;;
8219;SDS011;4151;51.110;7.020;2024-03-06T06:59:15;45.53;;;18.00;;
8219;SDS011;4151;51.110;7.020;2024-03-06T07:01:41;48.53;;;18.30;;
8219;SDS011;4151;51.110;7.020;2024-03-06T07:04:06;51.47;;;19.17;;
8219;SDS011;4151;51.110;7.020;2024-03-06T07:06:32;50.27;;;18.77;;
8219;SDS011;4151;51.110;7.020;2024-03-06T07:08:57;46.83;;;19.43;;
8219;SDS011;4151;51.110;7.020;2024-03-06T07:11:23;45.97;;;18.53;;
8219;SDS011;4151;51.110;7.020;2024-03-06T07:13:49;56.37;;;21.30;;
8219;SDS011;4151;51.110;7.020;2024-03-06T07:16:14;70.27;;;28.37;;
8219;SDS011;4151;51.110;7.020;2024-03-06T07:18:40;50.03;;;20.47;;
8219;SDS011;4151;51.110;7.020;2024-03-06T07:21:05;66.23;;;20.93;;
8219;SDS011;4151;51.110;7.020;2024-03-06T07:23:31;72.90;;;22.70;;
8219;SDS011;4151;51.110;7.020;2024-03-06T07:25:56;58.03;;;22.27;;
8219;SDS011;4151;51.110;7.020;2024-03-06T07:28:24;58.97;;;22.47;;
8219;SDS011;4151;51.110;7.020;2024-03-06T07:30:50;55.77;;;21.90;;
8219;SDS011;4151;51.110;7.020;2024-03-06T07:33:16;67.57;;;23.00;;
8219;SDS011;4151;51.110;7.020;2024-03-06T07:35:42;64.00;;;22.20;;
8219;SDS011;4151;51.110;7.020;2024-03-06T07:38:07;99.80;;;29.57;;
8219;SDS011;4151;51.110;7.020;2024-03-06T07:40:33;96.57;;;28.50;;
8219;SDS011;4151;51.110;7.020;2024-03-06T07:42:58;99.10;;;30.27;;
8219;SDS011;4151;51.110;7.020;2024-03-06T07:45:25;96.87;;;27.60;;
8219;SDS011;4151;51.110;7.020;2024-03-06T07:47:51;99.23;;;28.90;;
8219;SDS011;4151;51.110;7.020;2024-03-06T07:50:16;101.17;;;32.60;;
8219;SDS011;4151;51.110;7.020;2024-03-06T07:52:45;110.73;;;34.20;;
8219;SDS011;4151;51.110;7.020;2024-03-06T07:55:11;102.53;;;31.53;;
8219;SDS011;4151;51.110;7.020;2024-03-06T07:57:37;111.13;;;34.10;;
8219;SDS011;4151;51.110;7.020;2024-03-06T08:00:03;117.67;;;33.87;;
8219;SDS011;4151;51.110;7.020;2024-03-06T08:02:39;104.17;;;34.20;;
8219;SDS011;4151;51.110;7.020;2024-03-06T08:05:08;102.57;;;31.10;;
8219;SDS011;4151;51.110;7.020;2024-03-06T08:07:37;108.47;;;32.33;;
8219;SDS011;4151;51.110;7.020;2024-03-06T08:10:07;93.50;;;32.20;;
8219;SDS011;4151;51.110;7.020;2024-03-06T08:12:34;77.17;;;30.17;;
8219;SDS011;4151;51.110;7.020;2024-03-06T08:15:00;73.57;;;27.70;;
8219;SDS011;4151;51.110;7.020;2024-03-06T08:17:27;82.73;;;30.97;;
8219;SDS011;4151;51.110;7.020;2024-03-06T08:19:52;80.67;;;27.13;;
8219;SDS011;4151;51.110;7.020;2024-03-06T08:22:18;74.57;;;28.40;;
8219;SDS011;4151;51.110;7.020;2024-03-06T08:24:44;74.23;;;26.83;;
8219;SDS011;4151;51.110;7.020;2024-03-06T08:27:09;82.67;;;29.40;;
8219;SDS011;4151;51.110;7.020;2024-03-06T08:29:35;82.43;;;28.10;;
8219;SDS011;4151;51.110;7.020;2024-03-06T08:32:00;88.20;;;28.53;;
8219;SDS011;4151;51.110;7.020;2024-03-06T08:34:26;74.10;;;26.57;;
8219;SDS011;4151;51.110;7.020;2024-03-06T08:36:51;94.43;;;28.90;;
8219;SDS011;4151;51.110;7.020;2024-03-06T08:39:18;65.07;;;25.30;;
8219;SDS011;4151;51.110;7.020;2024-03-06T08:41:44;67.63;;;26.23;;
8219;SDS011;4151;51.110;7.020;2024-03-06T08:44:09;76.43;;;28.00;;
8219;SDS011;4151;51.110;7.020;2024-03-06T08:46:35;65.33;;;25.10;;
8219;SDS011;4151;51.110;7.020;2024-03-06T08:49:00;68.50;;;23.93;;
8219;SDS011;4151;51.110;7.020;2024-03-06T08:51:26;70.97;;;24.40;;
8219;SDS011;4151;51.110;7.020;2024-03-06T08:53:52;59.23;;;23.90;;
8219;SDS011;4151;51.110;7.020;2024-03-06T08:56:17;54.60;;;23.37;;
8219;SDS011;4151;51.110;7.020;2024-03-06T08:58:43;61.03;;;26.13;;
8219;SDS011;4151;51.110;7.020;2024-03-06T09:01:09;65.27;;;24.43;;
8219;SDS011;4151;51.110;7.020;2024-03-06T09:03:34;65.20;;;26.53;;
8219;SDS011;4151;51.110;7.020;2024-03-06T09:06:00;55.20;;;23.90;;
8219;SDS011;4151;51.110;7.020;2024-03-06T09:08:27;57.37;;;23.90;;
8219;SDS011;4151;51.110;7.020;2024-03-06T09:10:53;57.50;;;23.77;;
8219;SDS011;4151;51.110;7.020;2024-03-06T09:13:19;62.60;;;22.83;;
8219;SDS011;4151;51.110;7.020;2024-03-06T09:15:44;52.73;;;21.97;;
8219;SDS011;4151;51.110;7.020;2024-03-06T09:18:10;60.67;;;23.50;;
8219;SDS011;4151;51.110;7.020;2024-03-06T09:20:35;52.63;;;22.00;;
8219;SDS011;4151;51.110;7.020;2024-03-06T09:23:01;56.93;;;23.77;;
8219;SDS011;4151;51.110;7.020;2024-03-06T09:25:27;57.47;;;23.43;;
8219;SDS011;4151;51.110;7.020;2024-03-06T09:27:53;49.80;;;20.60;;
8219;SDS011;4151;51.110;7.020;2024-03-06T09:30:19;62.00;;;24.27;;
8219;SDS011;4151;51.110;7.020;2024-03-06T09:32:44;56.60;;;22.33;;
8219;SDS011;4151;51.110;7.020;2024-03-06T09:35:10;51.37;;;21.47;;
8219;SDS011;4151;51.110;7.020;2024-03-06T09:37:36;48.27;;;22.57;;
8219;SDS011;4151;51.110;7.020;2024-03-06T09:40:01;47.70;;;21.97;;
8219;SDS011;4151;51.110;7.020;2024-03-06T09:42:28;51.33;;;22.03;;
8219;SDS011;4151;51.110;7.020;2024-03-06T09:44:53;48.87;;;22.00;;
8219;SDS011;4151;51.110;7.020;2024-03-06T09:47:21;60.43;;;22.07;;
8219;SDS011;4151;51.110;7.020;2024-03-06T09:49:52;52.47;;;21.60;;
8219;SDS011;4151;51.110;7.020;2024-03-06T09:52:21;47.43;;;20.80;;
8219;SDS011;4151;51.110;7.020;2024-03-06T09:54:49;54.30;;;22.60;;
8219;SDS011;4151;51.110;7.020;2024-03-06T09:57:16;50.43;;;22.43;;
8219;SDS011;4151;51.110;7.020;2024-03-06T09:59:42;50.00;;;21.40;;
8219;SDS011;4151;51.110;7.020;2024-03-06T10:02:16;48.40;;;22.40;;
8219;SDS011;4151;51.110;7.020;2024-03-06T10:04:53;44.93;;;20.03;;
8219;SDS011;4151;51.110;7.020;2024-03-06T10:07:19;45.93;;;20.07;;
8219;SDS011;4151;51.110;7.020;2024-03-06T10:09:46;43.50;;;20.23;;
8219;SDS011;4151;51.110;7.020;2024-03-06T10:12:12;41.90;;;18.70;;
8219;SDS011;4151;51.110;7.020;2024-03-06T10:14:48;40.73;;;18.00;;
8219;SDS011;4151;51.110;7.020;2024-03-06T10:17:18;35.47;;;18.23;;
8219;SDS011;4151;51.110;7.020;2024-03-06T10:19:47;42.23;;;19.20;;
8219;SDS011;4151;51.110;7.020;2024-03-06T10:22:16;41.97;;;19.10;;
8219;SDS011;4151;51.110;7.020;2024-03-06T10:24:42;40.87;;;19.23;;
8219;SDS011;4151;51.110;7.020;2024-03-06T10:27:13;32.90;;;16.37;;
8219;SDS011;4151;51.110;7.020;2024-03-06T10:29:42;121.40;;;54.60;;
8219;SDS011;4151;51.110;7.020;2024-03-06T10:32:08;203.67;;;100.70;;
8219;SDS011;4151;51.110;7.020;2024-03-06T10:34:33;33.20;;;17.23;;
8219;SDS011;4151;51.110;7.020;2024-03-06T10:37:01;31.10;;;16.07;;
8219;SDS011;4151;51.110;7.020;2024-03-06T10:39:31;30.23;;;14.80;;
8219;SDS011;4151;51.110;7.020;2024-03-06T10:42:03;31.50;;;15.80;;
8219;SDS011;4151;51.110;7.020;2024-03-06T10:44:32;34.93;;;16.00;;
8219;SDS011;4151;51.110;7.020;2024-03-06T10:47:03;27.53;;;15.13;;
8219;SDS011;4151;51.110;7.020;2024-03-06T10:49:31;31.23;;;14.83;;
8219;SDS011;4151;51.110;7.020;2024-03-06T10:51:59;35.80;;;15.90;;
8219;SDS011;4151;51.110;7.020;2024-03-06T10:54:29;24.47;;;12.90;;
8219;SDS011;4151;51.110;7.020;2024-03-06T10:56:57;27.50;;;15.33;;
8219;SDS011;4151;51.110;7.020;2024-03-06T10:59:24;32.90;;;17.03;;
8219;SDS011;4151;51.110;7.020;2024-03-06T11:01:59;30.20;;;17.03;;
8219;SDS011;4151;51.110;7.020;2024-03-06T11:04:29;31.47;;;14.57;;
8219;SDS011;4151;51.110;7.020;2024-03-06T11:06:59;34.43;;;15.90;;
8219;SDS011;4151;51.110;7.020;2024-03-06T11:09:34;35.80;;;15.53;;
8219;SDS011;4151;51.110;7.020;2024-03-06T11:12:03;30.20;;;14.80;;
8219;SDS011;4151;51.110;7.020;2024-03-06T11:14:31;31.13;;;16.73;;
8219;SDS011;4151;51.110;7.020;2024-03-06T11:19:28;28.83;;;15.80;;
8219;SDS011;4151;51.110;7.020;2024-03-06T11:21:57;34.03;;;16.40;;
8219;SDS011;4151;51.110;7.020;2024-03-06T11:24:24;27.73;;;15.80;;
8219;SDS011;4151;51.110;7.020;2024-03-06T11:27:20;22.70;;;12.97;;
8219;SDS011;4151;51.110;7.020;2024-03-06T11:30:03;29.47;;;15.30;;
8219;SDS011;4151;51.110;7.020;2024-03-06T11:32:57;37.70;;;16.63;;
8219;SDS011;4151;51.110;7.020;2024-03-06T11:35:23;24.97;;;15.17;;
8219;SDS011;4151;51.110;7.020;2024-03-06T11:37:49;30.13;;;16.20;;
8219;SDS011;4151;51.110;7.020;2024-03-06T11:40:22;32.80;;;17.50;;
8219;SDS011;4151;51.110;7.020;2024-03-06T11:42:52;26.17;;;15.57;;
8219;SDS011;4151;51.110;7.020;2024-03-06T11:45:17;32.13;;;17.17;;
8219;SDS011;4151;51.110;7.020;2024-03-06T11:50:24;26.90;;;14.53;;
8219;SDS011;4151;51.110;7.020;2024-03-06T11:52:51;33.67;;;16.10;;
8219;SDS011;4151;51.110;7.020;2024-03-06T11:55:17;26.63;;;14.80;;
8219;SDS011;4151;51.110;7.020;2024-03-06T11:57:42;30.13;;;15.53;;
8219;SDS011;4151;51.110;7.020;2024-03-06T12:00:08;30.43;;;14.73;;
8219;SDS011;4151;51.110;7.020;2024-03-06T12:02:36;26.30;;;14.37;;
8219;SDS011;4151;51.110;7.020;2024-03-06T12:05:02;23.80;;;13.67;;
8219;SDS011;4151;51.110;7.020;2024-03-06T12:07:29;26.30;;;14.57;;
8219;SDS011;4151;51.110;7.020;2024-03-06T12:09:57;24.73;;;14.20;;
8219;SDS011;4151;51.110;7.020;2024-03-06T12:12:23;27.20;;;15.10;;
8219;SDS011;4151;51.110;7.020;2024-03-06T12:14:56;25.03;;;13.83;;
8219;SDS011;4151;51.110;7.020;2024-03-06T12:17:24;25.73;;;14.07;;
8219;SDS011;4151;51.110;7.020;2024-03-06T12:19:49;28.43;;;13.47;;
8219;SDS011;4151;51.110;7.020;2024-03-06T12:22:15;21.90;;;11.77;;
8219;SDS011;4151;51.110;7.020;2024-03-06T12:24:41;25.97;;;13.10;;
8219;SDS011;4151;51.110;7.020;2024-03-06T12:27:07;31.23;;;13.37;;
8219;SDS011;4151;51.110;7.020;2024-03-06T12:29:33;23.13;;;12.47;;
8219;SDS011;4151;51.110;7.020;2024-03-06T12:32:00;21.63;;;11.20;;
8219;SDS011;4151;51.110;7.020;2024-03-06T12:34:27;24.10;;;12.10;;
8219;SDS011;4151;51.110;7.020;2024-03-06T12:36:53;22.43;;;12.43;;
8219;SDS011;4151;51.110;7.020;2024-03-06T12:39:19;20.40;;;12.00;;
8219;SDS011;4151;51.110;7.020;2024-03-06T12:41:48;20.10;;;11.80;;
8219;SDS011;4151;51.110;7.020;2024-03-06T12:44:15;18.80;;;10.13;;
8219;SDS011;4151;51.110;7.020;2024-03-06T12:46:40;21.03;;;11.30;;
8219;SDS011;4151;51.110;7.020;2024-03-06T12:49:06;20.40;;;11.57;;
8219;SDS011;4151;51.110;7.020;2024-03-06T12:51:32;24.03;;;10.67;;
8219;SDS011;4151;51.110;7.020;2024-03-06T12:53:57;21.90;;;10.53;;
8219;SDS011;4151;51.110;7.020;2024-03-06T12:56:23;23.90;;;11.17;;
8219;SDS011;4151;51.110;7.020;2024-03-06T12:58:50;27.57;;;11.33;;
8219;SDS011;4151;51.110;7.020;2024-03-06T13:01:16;17.13;;;10.57;;
8219;SDS011;4151;51.110;7.020;2024-03-06T13:03:41;26.30;;;10.73;;
8219;SDS011;4151;51.110;7.020;2024-03-06T13:06:07;19.87;;;9.70;;
8219;SDS011;4151;51.110;7.020;2024-03-06T13:08:33;21.53;;;9.30;;
8219;SDS011;4151;51.110;7.020;2024-03-06T13:10:58;22.63;;;10.20;;
8219;SDS011;4151;51.110;7.020;2024-03-06T13:13:24;19.13;;;9.87;;
8219;SDS011;4151;51.110;7.020;2024-03-06T13:15:50;16.73;;;8.77;;
8219;SDS011;4151;51.110;7.020;2024-03-06T13:18:16;14.30;;;8.80;;
8219;SDS011;4151;51.110;7.020;2024-03-06T13:20:42;22.83;;;9.73;;
8219;SDS011;4151;51.110;7.020;2024-03-06T13:23:09;15.73;;;9.20;;
8219;SDS011;4151;51.110;7.020;2024-03-06T13:25:34;17.43;;;10.13;;
8219;SDS011;4151;51.110;7.020;2024-03-06T13:28:00;15.90;;;9.60;;
8219;SDS011;4151;51.110;7.020;2024-03-06T13:30:26;16.13;;;9.10;;
8219;SDS011;4151;51.110;7.020;2024-03-06T13:32:52;18.00;;;10.20;;
8219;SDS011;4151;51.110;7.020;2024-03-06T13:35:19;20.40;;;9.40;;
8219;SDS011;4151;51.110;7.020;2024-03-06T13:37:45;15.47;;;8.73;;
8219;SDS011;4151;51.110;7.020;2024-03-06T13:40:11;17.00;;;7.70;;
8219;SDS011;4151;51.110;7.020;2024-03-06T13:42:41;13.37;;;7.40;;
8219;SDS011;4151;51.110;7.020;2024-03-06T13:45:08;14.87;;;8.00;;
8219;SDS011;4151;51.110;7.020;2024-03-06T13:47:36;14.40;;;8.00;;
8219;SDS011;4151;51.110;7.020;2024-03-06T13:50:10;14.70;;;7.80;;
8219;SDS011;4151;51.110;7.020;2024-03-06T13:52:37;13.13;;;7.50;;
8219;SDS011;4151;51.110;7.020;2024-03-06T13:55:03;11.90;;;6.90;;
8219;SDS011;4151;51.110;7.020;2024-03-06T13:57:30;11.37;;;6.87;;
8219;SDS011;4151;51.110;7.020;2024-03-06T14:00:08;12.73;;;7.40;;
8219;SDS011;4151;51.110;7.020;2024-03-06T14:02:42;11.40;;;7.80;;
8219;SDS011;4151;51.110;7.020;2024-03-06T14:05:09;16.27;;;9.57;;
8219;SDS011;4151;51.110;7.020;2024-03-06T14:07:34;15.33;;;7.80;;
8219;SDS011;4151;51.110;7.020;2024-03-06T14:10:00;11.00;;;6.60;;
8219;SDS011;4151;51.110;7.020;2024-03-06T14:12:25;14.57;;;7.63;;
8219;SDS011;4151;51.110;7.020;2024-03-06T14:14:51;16.10;;;7.70;;
8219;SDS011;4151;51.110;7.020;2024-03-06T14:17:16;14.40;;;8.10;;
8219;SDS011;4151;51.110;7.020;2024-03-06T14:19:42;14.27;;;8.90;;
8219;SDS011;4151;51.110;7.020;2024-03-06T14:22:09;13.43;;;8.20;;
8219;SDS011;4151;51.110;7.020;2024-03-06T14:24:35;13.63;;;9.10;;
8219;SDS011;4151;51.110;7.020;2024-03-06T14:27:01;12.40;;;8.97;;
8219;SDS011;4151;51.110;7.020;2024-03-06T14:29:27;15.73;;;9.07;;
8219;SDS011;4151;51.110;7.020;2024-03-06T14:31:53;15.43;;;9.93;;
8219;SDS011;4151;51.110;7.020;2024-03-06T14:34:19;15.63;;;9.33;;
8219;SDS011;4151;51.110;7.020;2024-03-06T14:36:45;16.20;;;9.83;;
8219;SDS011;4151;51.110;7.020;2024-03-06T14:39:11;16.40;;;9.80;;
8219;SDS011;4151;51.110;7.020;2024-03-06T14:41:38;15.60;;;9.63;;
8219;SDS011;4151;51.110;7.020;2024-03-06T14:44:04;21.00;;;10.77;;
8219;SDS011;4151;51.110;7.020;2024-03-06T14:46:29;21.37;;;10.97;;
8219;SDS011;4151;51.110;7.020;2024-03-06T14:48:55;20.93;;;11.40;;